AEE86N LGAV-LOWW
Flight info
| Callsign | AEE86N |
|---|---|
| Flight time | 2h 7m |
| Altitude | 36000 |
| Route | KOR UL613 YNN UL604 DIMIS RETRA GACMO LOPKU BOSNA OBUTI OBUTI2W |
| Aircraft | A320/M-SDE3FGHIRWY/LB1 |
Departure
| Time | 2026-05-05 06:24 |
|---|---|
| Airport | Athens Eleftherios Venizelos International Airport (LGAV) |
Arrival
| Time | 2026-05-05 08:32 |
|---|---|
| Airport | Vienna International Airport (LOWW) |
| Time | Latitude | Longitude | Altitude | Speed | Heading |
|---|---|---|---|---|---|
| 2026-05-05 05:50 | 37.94004 | 23.95337 | 299 ft | 0 kts | 39° |
| 2026-05-05 06:15 | 37.94002 | 23.95335 | 302 ft | 3 kts | 39° |
| 2026-05-05 06:15 | 37.93982 | 23.95313 | 301 ft | 4 kts | 47° |
| 2026-05-05 06:16 | 37.93965 | 23.95286 | 300 ft | 4 kts | 60° |
| 2026-05-05 06:16 | 37.93955 | 23.95256 | 302 ft | 4 kts | 91° |
| 2026-05-05 06:16 | 37.93958 | 23.95238 | 300 ft | 0 kts | 125° |
| 2026-05-05 06:18 | 37.93955 | 23.95244 | 301 ft | 2 kts | 126° |
| 2026-05-05 06:18 | 37.93937 | 23.95273 | 300 ft | 7 kts | 127° |
| 2026-05-05 06:19 | 37.93900 | 23.95337 | 299 ft | 11 kts | 127° |
| 2026-05-05 06:19 | 37.93844 | 23.95420 | 298 ft | 14 kts | 143° |
| 2026-05-05 06:19 | 37.93755 | 23.95380 | 298 ft | 16 kts | 217° |
| 2026-05-05 06:19 | 37.93661 | 23.95291 | 299 ft | 18 kts | 217° |
| 2026-05-05 06:20 | 37.93555 | 23.95191 | 301 ft | 20 kts | 217° |
| 2026-05-05 06:20 | 37.93441 | 23.95080 | 299 ft | 22 kts | 218° |
| 2026-05-05 06:20 | 37.93315 | 23.94962 | 300 ft | 23 kts | 217° |
| 2026-05-05 06:20 | 37.93180 | 23.94835 | 301 ft | 25 kts | 217° |
| 2026-05-05 06:21 | 37.93036 | 23.94699 | 302 ft | 27 kts | 217° |
| 2026-05-05 06:21 | 37.92883 | 23.94554 | 302 ft | 28 kts | 217° |
| 2026-05-05 06:21 | 37.92725 | 23.94406 | 303 ft | 29 kts | 216° |
| 2026-05-05 06:21 | 37.92581 | 23.94272 | 303 ft | 24 kts | 218° |
| 2026-05-05 06:22 | 37.92513 | 23.94204 | 303 ft | 0 kts | 218° |
| 2026-05-05 06:22 | 37.92498 | 23.94189 | 303 ft | 8 kts | 217° |
| 2026-05-05 06:22 | 37.92443 | 23.94163 | 303 ft | 9 kts | 169° |
| 2026-05-05 06:22 | 37.92411 | 23.94235 | 305 ft | 10 kts | 91° |
| 2026-05-05 06:23 | 37.92414 | 23.94330 | 308 ft | 11 kts | 86° |
| 2026-05-05 06:23 | 37.92441 | 23.94414 | 309 ft | 9 kts | 39° |
| 2026-05-05 06:23 | 37.92500 | 23.94470 | 308 ft | 12 kts | 36° |
| 2026-05-05 06:23 | 37.92610 | 23.94571 | 308 ft | 39 kts | 36° |
| 2026-05-05 06:24 | 37.93023 | 23.94963 | 296 ft | 106 kts | 37° |
| 2026-05-05 06:24 | 37.93750 | 23.95655 | 282 ft | 153 kts | 37° |
| 2026-05-05 06:24 | 37.94660 | 23.96516 | 636 ft | 167 kts | 36° |
| 2026-05-05 06:24 | 37.95592 | 23.97383 | 1332 ft | 166 kts | 34° |
| 2026-05-05 06:25 | 37.96512 | 23.98263 | 2011 ft | 166 kts | 34° |
| 2026-05-05 06:25 | 37.97471 | 23.99190 | 2401 ft | 184 kts | 36° |
| 2026-05-05 06:25 | 37.98558 | 24.00238 | 2749 ft | 207 kts | 36° |
| 2026-05-05 06:25 | 37.99746 | 24.01383 | 3158 ft | 228 kts | 36° |
| 2026-05-05 06:26 | 38.01053 | 24.02645 | 3816 ft | 241 kts | 36° |
| 2026-05-05 06:26 | 38.02395 | 24.03943 | 4717 ft | 243 kts | 36° |
| 2026-05-05 06:26 | 38.03745 | 24.05248 | 5653 ft | 244 kts | 36° |
| 2026-05-05 06:26 | 38.05095 | 24.06551 | 6614 ft | 244 kts | 36° |
| 2026-05-05 06:27 | 38.06455 | 24.07860 | 7487 ft | 246 kts | 36° |
| 2026-05-05 06:27 | 38.08971 | 24.10931 | 8850 ft | 271 kts | 65° |
| 2026-05-05 06:27 | 38.09250 | 24.13335 | 9541 ft | 286 kts | 94° |
| 2026-05-05 06:28 | 38.08543 | 24.15693 | 10259 ft | 299 kts | 124° |
| 2026-05-05 06:28 | 38.06919 | 24.17369 | 10945 ft | 310 kts | 156° |
| 2026-05-05 06:28 | 38.04765 | 24.17850 | 11387 ft | 326 kts | 186° |
| 2026-05-05 06:28 | 38.02566 | 24.16947 | 11585 ft | 344 kts | 215° |
| 2026-05-05 06:29 | 38.00852 | 24.14773 | 11790 ft | 356 kts | 240° |
| 2026-05-05 06:29 | 37.99749 | 24.11948 | 12313 ft | 360 kts | 252° |
| 2026-05-05 06:29 | 37.98936 | 24.08930 | 12981 ft | 362 kts | 256° |
| 2026-05-05 06:29 | 37.98165 | 24.05875 | 13677 ft | 365 kts | 255° |
| 2026-05-05 06:30 | 37.97315 | 24.02850 | 14307 ft | 369 kts | 252° |
| 2026-05-05 06:30 | 37.96335 | 23.99814 | 14915 ft | 373 kts | 250° |
| 2026-05-05 06:30 | 37.95252 | 23.96808 | 15526 ft | 376 kts | 248° |
| 2026-05-05 06:30 | 37.94097 | 23.93801 | 16115 ft | 379 kts | 247° |
| 2026-05-05 06:31 | 37.92910 | 23.90802 | 16702 ft | 382 kts | 246° |
| 2026-05-05 06:31 | 37.91724 | 23.87818 | 17291 ft | 384 kts | 246° |
| 2026-05-05 06:31 | 37.90529 | 23.84775 | 17892 ft | 387 kts | 248° |
| 2026-05-05 06:31 | 37.89581 | 23.81597 | 18467 ft | 386 kts | 258° |
| 2026-05-05 06:32 | 37.89126 | 23.78247 | 18997 ft | 385 kts | 268° |
| 2026-05-05 06:32 | 37.89154 | 23.74852 | 19530 ft | 385 kts | 276° |
| 2026-05-05 06:32 | 37.89343 | 23.71447 | 20071 ft | 388 kts | 276° |
| 2026-05-05 06:32 | 37.89521 | 23.68072 | 20599 ft | 391 kts | 276° |
| 2026-05-05 06:33 | 37.89696 | 23.64623 | 21100 ft | 393 kts | 276° |
| 2026-05-05 06:33 | 37.89868 | 23.61155 | 21581 ft | 396 kts | 275° |
| 2026-05-05 06:33 | 37.90038 | 23.57664 | 22049 ft | 399 kts | 275° |
| 2026-05-05 06:33 | 37.90208 | 23.54146 | 22518 ft | 401 kts | 275° |
| 2026-05-05 06:34 | 37.90379 | 23.50603 | 22985 ft | 404 kts | 276° |
| 2026-05-05 06:34 | 37.90551 | 23.47041 | 23472 ft | 406 kts | 276° |
| 2026-05-05 06:34 | 37.90723 | 23.43504 | 23890 ft | 408 kts | 276° |
| 2026-05-05 06:34 | 37.90900 | 23.39895 | 24306 ft | 410 kts | 276° |
| 2026-05-05 06:35 | 37.91078 | 23.36281 | 24713 ft | 411 kts | 276° |
| 2026-05-05 06:35 | 37.91253 | 23.32651 | 25112 ft | 412 kts | 277° |
| 2026-05-05 06:35 | 37.91427 | 23.29017 | 25509 ft | 414 kts | 277° |
| 2026-05-05 06:35 | 37.91598 | 23.25412 | 25891 ft | 415 kts | 277° |
| 2026-05-05 06:36 | 37.91769 | 23.21749 | 26294 ft | 416 kts | 277° |
| 2026-05-05 06:36 | 37.91881 | 23.19318 | 26560 ft | 417 kts | 277° |
| 2026-05-05 06:36 | 37.92108 | 23.14402 | 27103 ft | 419 kts | 277° |
| 2026-05-05 06:36 | 37.92220 | 23.11950 | 27366 ft | 420 kts | 277° |
| 2026-05-05 06:37 | 37.92385 | 23.08250 | 27761 ft | 421 kts | 278° |
| 2026-05-05 06:37 | 37.92552 | 23.04535 | 28148 ft | 423 kts | 278° |
| 2026-05-05 06:37 | 37.92740 | 23.00808 | 28521 ft | 423 kts | 281° |
| 2026-05-05 06:37 | 37.93297 | 22.97172 | 28885 ft | 418 kts | 291° |
| 2026-05-05 06:38 | 37.94351 | 22.93819 | 29406 ft | 411 kts | 301° |
| 2026-05-05 06:38 | 37.95858 | 22.90771 | 29985 ft | 405 kts | 310° |
| 2026-05-05 06:38 | 37.97734 | 22.88136 | 30480 ft | 400 kts | 318° |
| 2026-05-05 06:38 | 37.99784 | 22.85755 | 30923 ft | 399 kts | 319° |
| 2026-05-05 06:39 | 38.01831 | 22.83383 | 31351 ft | 398 kts | 319° |
| 2026-05-05 06:39 | 38.03875 | 22.81013 | 31782 ft | 397 kts | 319° |
| 2026-05-05 06:39 | 38.05887 | 22.78674 | 32207 ft | 396 kts | 319° |
| 2026-05-05 06:39 | 38.07918 | 22.76308 | 32641 ft | 395 kts | 318° |
| 2026-05-05 06:40 | 38.09941 | 22.73941 | 33080 ft | 394 kts | 318° |
| 2026-05-05 06:40 | 38.11957 | 22.71588 | 33519 ft | 393 kts | 319° |
| 2026-05-05 06:40 | 38.13971 | 22.69241 | 33963 ft | 392 kts | 319° |
| 2026-05-05 06:40 | 38.15984 | 22.66902 | 34369 ft | 391 kts | 319° |
| 2026-05-05 06:41 | 38.17990 | 22.64570 | 34734 ft | 390 kts | 319° |
| 2026-05-05 06:41 | 38.19986 | 22.62248 | 35085 ft | 389 kts | 318° |
| 2026-05-05 06:41 | 38.21963 | 22.59948 | 35425 ft | 388 kts | 318° |
| 2026-05-05 06:41 | 38.23955 | 22.57629 | 35768 ft | 387 kts | 318° |
| 2026-05-05 06:42 | 38.25949 | 22.55306 | 36065 ft | 388 kts | 318° |
| 2026-05-05 06:42 | 38.29959 | 22.50629 | 36144 ft | 394 kts | 318° |
| 2026-05-05 06:43 | 38.33984 | 22.45916 | 36138 ft | 395 kts | 318° |
| 2026-05-05 06:43 | 38.38042 | 22.41167 | 36142 ft | 395 kts | 318° |
| 2026-05-05 06:44 | 38.42101 | 22.36411 | 36135 ft | 395 kts | 318° |
| 2026-05-05 06:44 | 38.46120 | 22.31690 | 36134 ft | 395 kts | 318° |
| 2026-05-05 06:45 | 38.50182 | 22.26906 | 36147 ft | 396 kts | 318° |
| 2026-05-05 06:45 | 38.54209 | 22.22147 | 36140 ft | 396 kts | 318° |
| 2026-05-05 06:46 | 38.58254 | 22.17366 | 36145 ft | 396 kts | 318° |
| 2026-05-05 06:46 | 38.62310 | 22.12568 | 36152 ft | 396 kts | 318° |
| 2026-05-05 06:47 | 38.66337 | 22.07796 | 36153 ft | 396 kts | 318° |
| 2026-05-05 06:47 | 38.69581 | 22.03942 | 36150 ft | 396 kts | 318° |
| 2026-05-05 06:48 | 38.73625 | 21.99133 | 36162 ft | 396 kts | 318° |
| 2026-05-05 06:48 | 38.77656 | 21.94323 | 36153 ft | 396 kts | 317° |
| 2026-05-05 06:49 | 38.81685 | 21.89509 | 36152 ft | 396 kts | 318° |
| 2026-05-05 06:49 | 38.85695 | 21.84724 | 36157 ft | 396 kts | 318° |
| 2026-05-05 06:50 | 38.89724 | 21.79910 | 36166 ft | 395 kts | 317° |
| 2026-05-05 06:50 | 38.93745 | 21.75088 | 36158 ft | 395 kts | 317° |
| 2026-05-05 06:51 | 38.97766 | 21.70266 | 36164 ft | 395 kts | 317° |
| 2026-05-05 06:51 | 39.01776 | 21.65449 | 36154 ft | 394 kts | 317° |
| 2026-05-05 06:52 | 39.05781 | 21.60620 | 36156 ft | 394 kts | 317° |
| 2026-05-05 06:52 | 39.09760 | 21.55811 | 36161 ft | 393 kts | 317° |
| 2026-05-05 06:53 | 39.13754 | 21.50980 | 36158 ft | 393 kts | 317° |
| 2026-05-05 06:53 | 39.17741 | 21.46152 | 36164 ft | 394 kts | 317° |
| 2026-05-05 06:54 | 39.21731 | 21.41313 | 36161 ft | 393 kts | 317° |
| 2026-05-05 06:54 | 39.25719 | 21.36471 | 36163 ft | 393 kts | 317° |
| 2026-05-05 06:55 | 39.29704 | 21.31624 | 36166 ft | 394 kts | 317° |
| 2026-05-05 06:55 | 39.33664 | 21.26796 | 36172 ft | 394 kts | 317° |
| 2026-05-05 06:56 | 39.37644 | 21.21937 | 36170 ft | 394 kts | 317° |
| 2026-05-05 06:56 | 39.41640 | 21.17059 | 36164 ft | 394 kts | 317° |
| 2026-05-05 06:57 | 39.45621 | 21.12181 | 36178 ft | 394 kts | 317° |
| 2026-05-05 06:57 | 39.49582 | 21.07321 | 36180 ft | 394 kts | 317° |
| 2026-05-05 06:58 | 39.53561 | 21.02426 | 36176 ft | 394 kts | 317° |
| 2026-05-05 06:58 | 39.57546 | 20.97528 | 36179 ft | 394 kts | 317° |
| 2026-05-05 06:59 | 39.61525 | 20.92629 | 36184 ft | 394 kts | 317° |
| 2026-05-05 06:59 | 39.65478 | 20.87742 | 36197 ft | 395 kts | 316° |
| 2026-05-05 07:00 | 39.69521 | 20.82922 | 36196 ft | 395 kts | 323° |
| 2026-05-05 07:00 | 39.74345 | 20.79505 | 36199 ft | 396 kts | 333° |
| 2026-05-05 07:01 | 39.79351 | 20.76477 | 36198 ft | 397 kts | 333° |
| 2026-05-05 07:01 | 39.84363 | 20.73433 | 36192 ft | 397 kts | 333° |
| 2026-05-05 07:02 | 39.89367 | 20.70384 | 36192 ft | 397 kts | 333° |
| 2026-05-05 07:02 | 39.94379 | 20.67330 | 36185 ft | 397 kts | 333° |
| 2026-05-05 07:03 | 39.99390 | 20.64282 | 36179 ft | 397 kts | 333° |
| 2026-05-05 07:03 | 40.04375 | 20.61241 | 36172 ft | 397 kts | 333° |
| 2026-05-05 07:04 | 40.09399 | 20.58191 | 36175 ft | 398 kts | 334° |
| 2026-05-05 07:04 | 40.14487 | 20.55311 | 36171 ft | 398 kts | 335° |
| 2026-05-05 07:05 | 40.19594 | 20.52489 | 36161 ft | 398 kts | 335° |
| 2026-05-05 07:05 | 40.24658 | 20.49655 | 36167 ft | 399 kts | 334° |
| 2026-05-05 07:06 | 40.29759 | 20.46759 | 36168 ft | 399 kts | 334° |
| 2026-05-05 07:06 | 40.34859 | 20.43849 | 36169 ft | 399 kts | 334° |
| 2026-05-05 07:07 | 40.39956 | 20.40935 | 36171 ft | 399 kts | 334° |
| 2026-05-05 07:07 | 40.45031 | 20.38042 | 36156 ft | 400 kts | 334° |
| 2026-05-05 07:08 | 40.50134 | 20.35127 | 36160 ft | 400 kts | 334° |
| 2026-05-05 07:08 | 40.55239 | 20.32213 | 36169 ft | 400 kts | 334° |
| 2026-05-05 07:09 | 40.60345 | 20.29292 | 36158 ft | 400 kts | 334° |
| 2026-05-05 07:09 | 40.65435 | 20.26368 | 36181 ft | 400 kts | 334° |
| 2026-05-05 07:10 | 40.70540 | 20.23437 | 36174 ft | 400 kts | 334° |
| 2026-05-05 07:10 | 40.75607 | 20.20518 | 36168 ft | 400 kts | 334° |
| 2026-05-05 07:11 | 40.80708 | 20.17569 | 36163 ft | 400 kts | 334° |
| 2026-05-05 07:11 | 40.85804 | 20.14619 | 36162 ft | 400 kts | 334° |
| 2026-05-05 07:12 | 40.90909 | 20.11670 | 36154 ft | 400 kts | 334° |
| 2026-05-05 07:12 | 40.96016 | 20.08715 | 36164 ft | 401 kts | 334° |
| 2026-05-05 07:13 | 41.01123 | 20.05744 | 36169 ft | 401 kts | 334° |
| 2026-05-05 07:13 | 41.06228 | 20.02769 | 36168 ft | 401 kts | 334° |
| 2026-05-05 07:14 | 41.11337 | 19.99786 | 36163 ft | 401 kts | 333° |
| 2026-05-05 07:14 | 41.16443 | 19.96799 | 36168 ft | 401 kts | 333° |
| 2026-05-05 07:15 | 41.21526 | 19.93830 | 36169 ft | 401 kts | 333° |
| 2026-05-05 07:15 | 41.26643 | 19.90845 | 36159 ft | 401 kts | 333° |
| 2026-05-05 07:16 | 41.31768 | 19.87845 | 36168 ft | 402 kts | 333° |
| 2026-05-05 07:16 | 41.36888 | 19.84829 | 36168 ft | 402 kts | 333° |
| 2026-05-05 07:17 | 41.42004 | 19.81804 | 36161 ft | 403 kts | 333° |
| 2026-05-05 07:17 | 41.47133 | 19.78781 | 36165 ft | 403 kts | 333° |
| 2026-05-05 07:18 | 41.52242 | 19.75769 | 36176 ft | 404 kts | 333° |
| 2026-05-05 07:18 | 41.57385 | 19.72726 | 36180 ft | 404 kts | 333° |
| 2026-05-05 07:19 | 41.62537 | 19.69669 | 36172 ft | 405 kts | 333° |
| 2026-05-05 07:19 | 41.67683 | 19.66607 | 36173 ft | 405 kts | 333° |
| 2026-05-05 07:20 | 41.72830 | 19.63544 | 36173 ft | 405 kts | 333° |
| 2026-05-05 07:20 | 41.77989 | 19.60464 | 36170 ft | 406 kts | 333° |
| 2026-05-05 07:21 | 41.83156 | 19.57381 | 36161 ft | 406 kts | 333° |
| 2026-05-05 07:21 | 41.88298 | 19.54303 | 36171 ft | 407 kts | 333° |
| 2026-05-05 07:22 | 41.93479 | 19.51197 | 36174 ft | 407 kts | 333° |
| 2026-05-05 07:22 | 41.98653 | 19.48090 | 36174 ft | 408 kts | 333° |
| 2026-05-05 07:23 | 42.03844 | 19.44976 | 36179 ft | 409 kts | 333° |
| 2026-05-05 07:23 | 42.08166 | 19.42382 | 36181 ft | 409 kts | 333° |
| 2026-05-05 07:24 | 42.13366 | 19.39244 | 36173 ft | 409 kts | 333° |
| 2026-05-05 07:24 | 42.18565 | 19.36089 | 36182 ft | 410 kts | 333° |
| 2026-05-05 07:25 | 42.23705 | 19.32774 | 36179 ft | 408 kts | 326° |
| 2026-05-05 07:25 | 42.28524 | 19.28736 | 36179 ft | 408 kts | 326° |
| 2026-05-05 07:26 | 42.33358 | 19.24691 | 36174 ft | 409 kts | 326° |
| 2026-05-05 07:26 | 42.38161 | 19.20667 | 36174 ft | 409 kts | 326° |
| 2026-05-05 07:27 | 42.43010 | 19.16603 | 36173 ft | 409 kts | 326° |
| 2026-05-05 07:27 | 42.47848 | 19.12525 | 36175 ft | 410 kts | 326° |
| 2026-05-05 07:28 | 42.52695 | 19.08437 | 36171 ft | 410 kts | 326° |
| 2026-05-05 07:28 | 42.57550 | 19.04336 | 36166 ft | 411 kts | 325° |
| 2026-05-05 07:29 | 42.62380 | 19.00247 | 36166 ft | 411 kts | 325° |
| 2026-05-05 07:29 | 42.67243 | 18.96118 | 36167 ft | 412 kts | 325° |
| 2026-05-05 07:30 | 42.72114 | 18.91972 | 36156 ft | 412 kts | 325° |
| 2026-05-05 07:30 | 42.79421 | 18.85750 | 36155 ft | 413 kts | 325° |
| 2026-05-05 07:31 | 42.84268 | 18.81611 | 36151 ft | 414 kts | 325° |
| 2026-05-05 07:31 | 42.89158 | 18.77431 | 36149 ft | 414 kts | 325° |
| 2026-05-05 07:32 | 42.94048 | 18.73247 | 36144 ft | 414 kts | 325° |
| 2026-05-05 07:32 | 42.98934 | 18.69050 | 36144 ft | 415 kts | 325° |
| 2026-05-05 07:33 | 43.03821 | 18.64843 | 36141 ft | 415 kts | 325° |
| 2026-05-05 07:33 | 43.08674 | 18.60656 | 36136 ft | 415 kts | 325° |
| 2026-05-05 07:34 | 43.13567 | 18.56437 | 36132 ft | 416 kts | 327° |
| 2026-05-05 07:34 | 43.18813 | 18.53021 | 36130 ft | 418 kts | 333° |
| 2026-05-05 07:35 | 43.24134 | 18.49751 | 36125 ft | 419 kts | 333° |
| 2026-05-05 07:35 | 43.29407 | 18.46431 | 36123 ft | 419 kts | 332° |
| 2026-05-05 07:36 | 43.34688 | 18.43014 | 36118 ft | 420 kts | 332° |
| 2026-05-05 07:36 | 43.39983 | 18.39572 | 36121 ft | 421 kts | 332° |
| 2026-05-05 07:37 | 43.45295 | 18.36149 | 36122 ft | 421 kts | 332° |
| 2026-05-05 07:37 | 43.50616 | 18.32728 | 36116 ft | 422 kts | 332° |
| 2026-05-05 07:38 | 43.55943 | 18.29291 | 36100 ft | 422 kts | 332° |
| 2026-05-05 07:38 | 43.61235 | 18.25861 | 36101 ft | 424 kts | 332° |
| 2026-05-05 07:39 | 43.66569 | 18.22390 | 36099 ft | 424 kts | 332° |
| 2026-05-05 07:39 | 43.71923 | 18.18911 | 36106 ft | 425 kts | 332° |
| 2026-05-05 07:40 | 43.77284 | 18.15421 | 36113 ft | 426 kts | 332° |
| 2026-05-05 07:40 | 43.82641 | 18.11920 | 36114 ft | 426 kts | 332° |
| 2026-05-05 07:41 | 43.88005 | 18.08407 | 36114 ft | 427 kts | 332° |
| 2026-05-05 07:41 | 43.93376 | 18.04883 | 36111 ft | 427 kts | 332° |
| 2026-05-05 07:42 | 43.98712 | 18.01378 | 36109 ft | 427 kts | 332° |
| 2026-05-05 07:42 | 44.04116 | 17.97815 | 36099 ft | 427 kts | 332° |
| 2026-05-05 07:43 | 44.09457 | 17.94285 | 36097 ft | 428 kts | 332° |
| 2026-05-05 07:43 | 44.14846 | 17.90730 | 36094 ft | 428 kts | 332° |
| 2026-05-05 07:44 | 44.20238 | 17.87167 | 36090 ft | 428 kts | 332° |
| 2026-05-05 07:44 | 44.25626 | 17.83586 | 36086 ft | 429 kts | 332° |
| 2026-05-05 07:45 | 44.30993 | 17.80014 | 36083 ft | 429 kts | 332° |
| 2026-05-05 07:45 | 44.36402 | 17.76419 | 36081 ft | 429 kts | 332° |
| 2026-05-05 07:46 | 44.41722 | 17.72754 | 36075 ft | 428 kts | 330° |
| 2026-05-05 07:46 | 44.47030 | 17.68916 | 36075 ft | 428 kts | 329° |
| 2026-05-05 07:47 | 44.52326 | 17.65082 | 36068 ft | 429 kts | 330° |
| 2026-05-05 07:47 | 44.57643 | 17.61270 | 36056 ft | 429 kts | 330° |
| 2026-05-05 07:48 | 44.62938 | 17.57492 | 36061 ft | 429 kts | 330° |
| 2026-05-05 07:48 | 44.68259 | 17.53676 | 36053 ft | 429 kts | 330° |
| 2026-05-05 07:49 | 44.73571 | 17.49842 | 36046 ft | 429 kts | 330° |
| 2026-05-05 07:49 | 44.78887 | 17.45995 | 36042 ft | 429 kts | 330° |
| 2026-05-05 07:50 | 44.84178 | 17.42172 | 36040 ft | 430 kts | 330° |
| 2026-05-05 07:50 | 44.89501 | 17.38310 | 36036 ft | 430 kts | 330° |
| 2026-05-05 07:51 | 44.94826 | 17.34439 | 36036 ft | 430 kts | 330° |
| 2026-05-05 07:51 | 45.00150 | 17.30566 | 36036 ft | 430 kts | 330° |
| 2026-05-05 07:52 | 45.05443 | 17.26707 | 36036 ft | 430 kts | 329° |
| 2026-05-05 07:52 | 45.10772 | 17.22805 | 36037 ft | 431 kts | 329° |
| 2026-05-05 07:53 | 45.16093 | 17.18909 | 36047 ft | 431 kts | 330° |
| 2026-05-05 07:53 | 45.21423 | 17.15000 | 36051 ft | 432 kts | 330° |
| 2026-05-05 07:54 | 45.26760 | 17.11075 | 36059 ft | 432 kts | 329° |
| 2026-05-05 07:54 | 45.32073 | 17.07150 | 36055 ft | 432 kts | 329° |
| 2026-05-05 07:55 | 45.37412 | 17.03206 | 36053 ft | 432 kts | 329° |
| 2026-05-05 07:55 | 45.42757 | 16.99256 | 36052 ft | 433 kts | 330° |
| 2026-05-05 07:56 | 45.48092 | 16.95300 | 36049 ft | 433 kts | 329° |
| 2026-05-05 07:56 | 45.53442 | 16.91317 | 36044 ft | 433 kts | 329° |
| 2026-05-05 07:57 | 45.58787 | 16.87333 | 36041 ft | 433 kts | 329° |
| 2026-05-05 07:57 | 45.64116 | 16.83353 | 36040 ft | 434 kts | 329° |
| 2026-05-05 07:58 | 45.69483 | 16.79339 | 36039 ft | 434 kts | 329° |
| 2026-05-05 07:58 | 45.74841 | 16.75324 | 36039 ft | 435 kts | 329° |
| 2026-05-05 07:59 | 45.80202 | 16.71296 | 36040 ft | 435 kts | 329° |
| 2026-05-05 07:59 | 45.85531 | 16.67281 | 36034 ft | 435 kts | 329° |
| 2026-05-05 08:00 | 45.90897 | 16.63227 | 36028 ft | 435 kts | 329° |
| 2026-05-05 08:00 | 45.96269 | 16.59163 | 36025 ft | 436 kts | 329° |
| 2026-05-05 08:01 | 46.01641 | 16.55092 | 36021 ft | 436 kts | 329° |
| 2026-05-05 08:01 | 46.06978 | 16.51034 | 36018 ft | 436 kts | 329° |
| 2026-05-05 08:02 | 46.12340 | 16.46947 | 36018 ft | 437 kts | 329° |
| 2026-05-05 08:02 | 46.17727 | 16.42842 | 36012 ft | 437 kts | 329° |
| 2026-05-05 08:03 | 46.23110 | 16.38728 | 36008 ft | 437 kts | 329° |
| 2026-05-05 08:03 | 46.28469 | 16.34614 | 36005 ft | 437 kts | 329° |
| 2026-05-05 08:04 | 46.33843 | 16.30471 | 36004 ft | 438 kts | 329° |
| 2026-05-05 08:04 | 46.39474 | 16.27091 | 35998 ft | 442 kts | 344° |
| 2026-05-05 08:05 | 46.45559 | 16.25575 | 35984 ft | 444 kts | 348° |
| 2026-05-05 08:05 | 46.51634 | 16.24153 | 35981 ft | 444 kts | 348° |
| 2026-05-05 08:06 | 46.57747 | 16.22702 | 35976 ft | 445 kts | 348° |
| 2026-05-05 08:06 | 46.63856 | 16.21250 | 35349 ft | 449 kts | 348° |
| 2026-05-05 08:07 | 46.66963 | 16.20505 | 34479 ft | 455 kts | 348° |
| 2026-05-05 08:07 | 46.70089 | 16.19757 | 33870 ft | 454 kts | 348° |
| 2026-05-05 08:07 | 46.73202 | 16.19016 | 33184 ft | 453 kts | 348° |
| 2026-05-05 08:07 | 46.76316 | 16.18275 | 32488 ft | 452 kts | 348° |
| 2026-05-05 08:08 | 46.79384 | 16.17543 | 31745 ft | 453 kts | 348° |
| 2026-05-05 08:08 | 46.82527 | 16.16787 | 30534 ft | 463 kts | 348° |
| 2026-05-05 08:08 | 46.85739 | 16.16007 | 29368 ft | 470 kts | 348° |
| 2026-05-05 08:08 | 46.88963 | 16.15226 | 28430 ft | 470 kts | 348° |
| 2026-05-05 08:09 | 46.92191 | 16.14452 | 27565 ft | 468 kts | 348° |
| 2026-05-05 08:09 | 46.95395 | 16.13689 | 26798 ft | 464 kts | 348° |
| 2026-05-05 08:09 | 46.98585 | 16.12930 | 26062 ft | 460 kts | 348° |
| 2026-05-05 08:09 | 47.01726 | 16.12179 | 25339 ft | 456 kts | 348° |
| 2026-05-05 08:10 | 47.04842 | 16.11424 | 24629 ft | 452 kts | 348° |
| 2026-05-05 08:10 | 47.07936 | 16.10672 | 23950 ft | 448 kts | 348° |
| 2026-05-05 08:10 | 47.10956 | 16.09936 | 23260 ft | 444 kts | 348° |
| 2026-05-05 08:10 | 47.14006 | 16.09192 | 22480 ft | 441 kts | 348° |
| 2026-05-05 08:11 | 47.17026 | 16.08458 | 21675 ft | 438 kts | 349° |
| 2026-05-05 08:11 | 47.19012 | 16.07978 | 21289 ft | 434 kts | 349° |
| 2026-05-05 08:11 | 47.21964 | 16.07262 | 20735 ft | 426 kts | 349° |
| 2026-05-05 08:11 | 47.24873 | 16.06555 | 20196 ft | 420 kts | 349° |
| 2026-05-05 08:12 | 47.27742 | 16.05859 | 19657 ft | 415 kts | 348° |
| 2026-05-05 08:12 | 47.30589 | 16.05166 | 19136 ft | 411 kts | 348° |
| 2026-05-05 08:12 | 47.33409 | 16.04483 | 18602 ft | 408 kts | 350° |
| 2026-05-05 08:12 | 47.36248 | 16.04246 | 18028 ft | 408 kts | 1° |
| 2026-05-05 08:13 | 47.39014 | 16.04789 | 17665 ft | 402 kts | 12° |
| 2026-05-05 08:13 | 47.41693 | 16.05989 | 17529 ft | 405 kts | 18° |
| 2026-05-05 08:13 | 47.44372 | 16.07311 | 17302 ft | 405 kts | 18° |
| 2026-05-05 08:13 | 47.47046 | 16.08629 | 17093 ft | 405 kts | 18° |
| 2026-05-05 08:14 | 47.49726 | 16.09953 | 16868 ft | 405 kts | 18° |
| 2026-05-05 08:14 | 47.52367 | 16.11263 | 16659 ft | 403 kts | 19° |
| 2026-05-05 08:14 | 47.55027 | 16.12585 | 16435 ft | 402 kts | 19° |
| 2026-05-05 08:14 | 47.57685 | 16.13908 | 16216 ft | 400 kts | 19° |
| 2026-05-05 08:15 | 47.60321 | 16.15220 | 16004 ft | 399 kts | 19° |
| 2026-05-05 08:15 | 47.62948 | 16.16524 | 15786 ft | 398 kts | 19° |
| 2026-05-05 08:15 | 47.65571 | 16.17825 | 15574 ft | 396 kts | 19° |
| 2026-05-05 08:15 | 47.68182 | 16.19128 | 15357 ft | 395 kts | 19° |
| 2026-05-05 08:16 | 47.70783 | 16.20433 | 15144 ft | 394 kts | 19° |
| 2026-05-05 08:16 | 47.73342 | 16.21873 | 14935 ft | 392 kts | 27° |
| 2026-05-05 08:16 | 47.75660 | 16.23969 | 14724 ft | 389 kts | 39° |
| 2026-05-05 08:16 | 47.77619 | 16.26644 | 14520 ft | 386 kts | 51° |
| 2026-05-05 08:17 | 47.79198 | 16.29841 | 14315 ft | 382 kts | 62° |
| 2026-05-05 08:17 | 47.80535 | 16.33257 | 14105 ft | 381 kts | 63° |
| 2026-05-05 08:17 | 47.81870 | 16.36666 | 13906 ft | 380 kts | 63° |
| 2026-05-05 08:17 | 47.83202 | 16.40063 | 13701 ft | 379 kts | 63° |
| 2026-05-05 08:18 | 47.84531 | 16.43459 | 13484 ft | 379 kts | 63° |
| 2026-05-05 08:18 | 47.85852 | 16.46847 | 13289 ft | 378 kts | 63° |
| 2026-05-05 08:18 | 47.87171 | 16.50237 | 13086 ft | 377 kts | 63° |
| 2026-05-05 08:18 | 47.88471 | 16.53579 | 12874 ft | 376 kts | 63° |
| 2026-05-05 08:19 | 47.89784 | 16.56958 | 12654 ft | 375 kts | 63° |
| 2026-05-05 08:19 | 47.91087 | 16.60315 | 12467 ft | 374 kts | 63° |
| 2026-05-05 08:19 | 47.92389 | 16.63676 | 12258 ft | 373 kts | 62° |
| 2026-05-05 08:19 | 47.93683 | 16.67024 | 12067 ft | 371 kts | 62° |
| 2026-05-05 08:20 | 47.94955 | 16.70321 | 11842 ft | 370 kts | 62° |
| 2026-05-05 08:20 | 47.96241 | 16.73646 | 11639 ft | 370 kts | 62° |
| 2026-05-05 08:20 | 47.97732 | 16.76766 | 11428 ft | 371 kts | 46° |
| 2026-05-05 08:20 | 47.99838 | 16.79001 | 11223 ft | 372 kts | 25° |
| 2026-05-05 08:21 | 48.02321 | 16.79994 | 11017 ft | 371 kts | 3° |
| 2026-05-05 08:21 | 48.04865 | 16.79622 | 10788 ft | 366 kts | 341° |
| 2026-05-05 08:21 | 48.07180 | 16.78105 | 10576 ft | 357 kts | 330° |
| 2026-05-05 08:21 | 48.09346 | 16.76439 | 10458 ft | 344 kts | 330° |
| 2026-05-05 08:22 | 48.11439 | 16.74820 | 10336 ft | 333 kts | 330° |
| 2026-05-05 08:22 | 48.13435 | 16.73271 | 10208 ft | 322 kts | 330° |
| 2026-05-05 08:22 | 48.15401 | 16.71745 | 10089 ft | 313 kts | 330° |
| 2026-05-05 08:22 | 48.17315 | 16.70262 | 9909 ft | 307 kts | 330° |
| 2026-05-05 08:23 | 48.19205 | 16.68799 | 9652 ft | 304 kts | 330° |
| 2026-05-05 08:23 | 48.21083 | 16.67349 | 9347 ft | 302 kts | 330° |
| 2026-05-05 08:23 | 48.23017 | 16.66113 | 8998 ft | 300 kts | 341° |
| 2026-05-05 08:23 | 48.25025 | 16.65258 | 8420 ft | 299 kts | 342° |
| 2026-05-05 08:24 | 48.27027 | 16.64419 | 7897 ft | 299 kts | 342° |
| 2026-05-05 08:24 | 48.28995 | 16.63596 | 7349 ft | 296 kts | 342° |
| 2026-05-05 08:24 | 48.30975 | 16.62764 | 6799 ft | 294 kts | 342° |
| 2026-05-05 08:24 | 48.32942 | 16.61938 | 6288 ft | 292 kts | 342° |
| 2026-05-05 08:25 | 48.34893 | 16.61120 | 5788 ft | 289 kts | 343° |
| 2026-05-05 08:25 | 48.36761 | 16.60249 | 5631 ft | 271 kts | 332° |
| 2026-05-05 08:25 | 48.38184 | 16.58597 | 5258 ft | 257 kts | 303° |
| 2026-05-05 08:25 | 48.38869 | 16.56210 | 4773 ft | 247 kts | 273° |
| 2026-05-05 08:26 | 48.38738 | 16.53677 | 4256 ft | 243 kts | 253° |
| 2026-05-05 08:26 | 48.38343 | 16.51214 | 4018 ft | 241 kts | 253° |
| 2026-05-05 08:26 | 48.37799 | 16.48838 | 3992 ft | 239 kts | 234° |
| 2026-05-05 08:26 | 48.36532 | 16.47320 | 3994 ft | 236 kts | 196° |
| 2026-05-05 08:27 | 48.34935 | 16.47384 | 3996 ft | 235 kts | 158° |
| 2026-05-05 08:27 | 48.33524 | 16.48603 | 3998 ft | 237 kts | 153° |
| 2026-05-05 08:27 | 48.31976 | 16.49416 | 3999 ft | 236 kts | 167° |
| 2026-05-05 08:27 | 48.30376 | 16.50022 | 3995 ft | 237 kts | 166° |
| 2026-05-05 08:28 | 48.28776 | 16.50678 | 3922 ft | 238 kts | 166° |
| 2026-05-05 08:28 | 48.27185 | 16.51356 | 3663 ft | 238 kts | 165° |
| 2026-05-05 08:28 | 48.25585 | 16.52038 | 3371 ft | 239 kts | 165° |
| 2026-05-05 08:28 | 48.23986 | 16.52719 | 3057 ft | 237 kts | 165° |
| 2026-05-05 08:29 | 48.22452 | 16.53372 | 2752 ft | 225 kts | 166° |
| 2026-05-05 08:29 | 48.20972 | 16.54002 | 2474 ft | 215 kts | 166° |
| 2026-05-05 08:29 | 48.19559 | 16.54602 | 2180 ft | 208 kts | 166° |
| 2026-05-05 08:30 | 48.16975 | 16.55698 | 1692 ft | 175 kts | 164° |
| 2026-05-05 08:30 | 48.15877 | 16.56163 | 1471 ft | 151 kts | 163° |
| 2026-05-05 08:30 | 48.14913 | 16.56573 | 1242 ft | 138 kts | 162° |
| 2026-05-05 08:30 | 48.14005 | 16.56957 | 1041 ft | 132 kts | 161° |
| 2026-05-05 08:31 | 48.13121 | 16.57335 | 896 ft | 132 kts | 161° |
| 2026-05-05 08:31 | 48.12232 | 16.57713 | 721 ft | 132 kts | 161° |
| 2026-05-05 08:31 | 48.11369 | 16.58071 | 609 ft | 119 kts | 162° |
| 2026-05-05 08:31 | 48.10763 | 16.58337 | 603 ft | 58 kts | 163° |
| 2026-05-05 08:32 | 48.10454 | 16.58459 | 596 ft | 31 kts | 167° |
| 2026-05-05 08:32 | 48.10260 | 16.58455 | 597 ft | 27 kts | 194° |
| 2026-05-05 08:32 | 48.10133 | 16.58389 | 600 ft | 9 kts | 216° |
| 2026-05-05 08:32 | 48.10093 | 16.58302 | 603 ft | 11 kts | 250° |
| 2026-05-05 08:33 | 48.10100 | 16.58198 | 617 ft | 12 kts | 312° |
| 2026-05-05 08:33 | 48.10183 | 16.58157 | 615 ft | 14 kts | 345° |
| 2026-05-05 08:33 | 48.10283 | 16.58115 | 609 ft | 16 kts | 342° |
| 2026-05-05 08:33 | 48.10394 | 16.58066 | 607 ft | 17 kts | 346° |
| 2026-05-05 08:34 | 48.10517 | 16.58017 | 614 ft | 19 kts | 344° |
| 2026-05-05 08:34 | 48.10652 | 16.57961 | 619 ft | 21 kts | 343° |
| 2026-05-05 08:34 | 48.10797 | 16.57897 | 612 ft | 24 kts | 343° |
| 2026-05-05 08:34 | 48.10967 | 16.57827 | 612 ft | 27 kts | 344° |
| 2026-05-05 08:35 | 48.11118 | 16.57759 | 614 ft | 17 kts | 335° |
| 2026-05-05 08:35 | 48.11188 | 16.57624 | 621 ft | 18 kts | 296° |
| 2026-05-05 08:35 | 48.11245 | 16.57447 | 617 ft | 20 kts | 295° |
| 2026-05-05 08:35 | 48.11309 | 16.57250 | 610 ft | 23 kts | 296° |
| 2026-05-05 08:36 | 48.11382 | 16.57026 | 615 ft | 25 kts | 295° |
| 2026-05-05 08:36 | 48.11465 | 16.56774 | 602 ft | 29 kts | 296° |
| 2026-05-05 08:36 | 48.11558 | 16.56487 | 598 ft | 31 kts | 296° |
| 2026-05-05 08:36 | 48.11631 | 16.56263 | 599 ft | 24 kts | 295° |
| 2026-05-05 08:37 | 48.11703 | 16.56044 | 601 ft | 20 kts | 296° |
| 2026-05-05 08:37 | 48.11752 | 16.55888 | 600 ft | 13 kts | 296° |
| 2026-05-05 08:37 | 48.11807 | 16.55823 | 598 ft | 11 kts | 27° |
| 2026-05-05 08:37 | 48.11877 | 16.55882 | 595 ft | 12 kts | 29° |
| 2026-05-05 08:38 | 48.11912 | 16.55873 | 594 ft | 4 kts | 306° |
| 2026-05-05 08:38 | 48.11929 | 16.55824 | 594 ft | 4 kts | 295° |
| 2026-05-05 08:38 | 48.11937 | 16.55800 | 594 ft | 0 kts | 296° |